Tuesday, January 15, 2019, 5:26 PM CST
Back to Local

KORD, Chicago O'hare International

Location: Des Plaines, IL, United States Lat: 41.983
Local Time: 5:26 PM CST (23:26 GMT) Lon: -87.917
Time Zone: US/Central Elev: 669 ft

Show me the last for .
Show Decoded

2019-01-15 16:51 METAR KORD 152251Z 23010G27KT 10SM OVC008 M03/M04 A3005 RMK AO2 PK WND
                 22027/2243 SLP185 T10281044 =
2019-01-15 16:44 METAR KORD 152244Z 23016G27KT 10SM OVC009 M03/M04 A3005 RMK AO2 PK WND
                 22027/2243 T10281044 =
2019-01-15 15:51 METAR KORD 152151Z 23011G20KT 10SM OVC011 M02/M04 A3006 RMK AO2 SLP189 T10221044
                 =
2019-01-15 14:51 METAR KORD 152051Z 23013G18KT 10SM OVC011 M02/M05 A3007 RMK AO2 SLP192 T10221050
                 56024 =
2019-01-15 13:51 METAR KORD 151951Z 23013G21KT 10SM OVC011 M03/M05 A3009 RMK AO2 SLP198 T10281050
                 =
2019-01-15 12:51 METAR KORD 151851Z 24013G21KT 10SM OVC012 M03/M05 A3011 RMK AO2 SLP204 T10281050
                 =
2019-01-15 11:51 METAR KORD 151751Z 23012G18KT 10SM OVC014 M03/M06 A3015 RMK AO2 SLP218 4/001
                 T10281056 11028 21039 58012 =
2019-01-15 10:51 METAR KORD 151651Z 22010KT 10SM OVC013 M03/M06 A3018 RMK AO2 SLP230 T10281056 =
2019-01-15 10:33 METAR KORD 151633Z 22010KT 10SM OVC013 M03/M06 A3018 RMK AO2 T10281056 =
2019-01-15 09:51 METAR KORD 151551Z 22007KT 10SM OVC017 M03/M06 A3020 RMK AO2 SLP237 T10281056 =
2019-01-15 08:51 METAR KORD 151451Z 23009KT 10SM OVC018 M03/M06 A3018 RMK AO2 SLP231 T10331056
                 57005 =
2019-01-15 07:51 METAR KORD 151351Z 25007KT 10SM OVC018 M03/M06 A3019 RMK AO2 SLP232 T10331056 =
2019-01-15 06:51 METAR KORD 151251Z 24008KT 10SM FEW009 OVC021 M04/M06 A3019 RMK AO2 SLP234
                 T10391056 =
2019-01-15 05:51 METAR KORD 151151Z 24009KT 10SM FEW009 OVC022 M04/M06 A3020 RMK AO2 SLP235 4/001
                 60000 I6000 T10391056 11039 21044 56009 =
2019-01-15 04:51 METAR KORD 151051Z 24010KT 9SM OVC021 M04/M06 A3020 RMK AO2 SLP236 T10391056 =
2019-01-15 04:23 METAR KORD 151023Z 24009KT 8SM SCT009 OVC020 M04/M06 A3020 RMK AO2 T10391056 =
2019-01-15 03:51 METAR KORD 150951Z 25006KT 7SM OVC009 M04/M06 A3021 RMK AO2 SLP240 T10391056 =
2019-01-15 02:51 METAR KORD 150851Z 25007KT 6SM BR OVC009 M04/M06 A3023 RMK AO2 SLP245 60000
                 I3000 T10391056 55002 =
2019-01-15 01:51 METAR KORD 150751Z 26007KT 7SM OVC009 M04/M06 A3022 RMK AO2 SLP243 T10441056 =
2019-01-15 01:22 METAR KORD 150722Z 25008KT 7SM OVC009 M04/M06 A3021 RMK AO2 T10441061 =
2019-01-15 01:03 METAR KORD 150703Z 26006KT 8SM OVC011 M04/M06 A3021 RMK AO2 T10391061 =
2019-01-15 00:51 METAR KORD 150651Z 26007KT 8SM OVC015 M04/M06 A3021 RMK AO2 FZDZE0556 SLP240
                 P0000 I1000 T10391056 =
2019-01-15 00:14 METAR KORD 150614Z 25005KT 8SM OVC016 M04/M06 A3022 RMK AO2 FZDZE0556 P0000
                 I1000 T10441061 =
2019-01-14 23:56 METAR KORD 150556Z 26005KT 6SM BR BKN010 OVC014 M04/M06 A3023 RMK AO2 FZDZE56
                 P0000 I1000 T10441056 =
2019-01-14 23:51 METAR KORD 150551Z 28007KT 4SM -FZDZ BR BKN007 OVC012 M04/M06 A3023 RMK AO2
                 SLP247 4/001 P0000 60000 I1001 I6001 T10441056 11039 21050 410281050 58009 =
2019-01-14 23:14 METAR KORD 150514Z 27008KT 4SM -FZDZ BR OVC007 M04/M06 A3024 RMK AO2 P0000 I1000
                 T10391056 =
2019-01-14 22:51 METAR KORD 150451Z 27009KT 5SM -FZDZ BR OVC009 M04/M06 A3025 RMK AO2 FZDZB48
                 SLP254 P0000 I1000 T10391056 =
2019-01-14 21:51 METAR KORD 150351Z 25007KT 5SM BR OVC008 M04/M06 A3025 RMK AO2 SLP253 T10441061
                 =
2019-01-14 20:51 METAR KORD 150251Z 26009KT 6SM BR OVC008 M05/M07 A3026 RMK AO2 SLP257 T10501067
                 58002 =
2019-01-14 20:39 METAR KORD 150239Z 25010KT 6SM BR OVC008 M05/M07 A3026 RMK AO2 T10501067 =
2019-01-14 19:51 METAR KORD 150151Z 25005KT 7SM OVC010 M04/M07 A3027 RMK AO2 SLP258 T10441067 =
2019-01-14 18:51 METAR KORD 150051Z 25009KT 7SM OVC011 M04/M07 A3027 RMK AO2 SLP261 T10441067 =
2019-01-14 17:51 METAR KORD 142351Z 25010KT 10SM OVC014 M04/M07 A3027 RMK AO2 SLP260 4/001
                 T10391067 11028 21039 53001 =

Support USWX by starting your Amazon purchase here.